Time;durP1;ratioP1;P1;durP2;ratioP2;P2;SDS_P1;SDS_P2;PMS_P1;PMS_P2;Temp;Humidity;BMP_temperature;BMP_pressure;BME280_temperature;BME280_humidity;BME280_pressure;Samples;Min_cycle;Max_cycle;Signal;HPM_P1;HPM_P2
2022/04/28 00:02:19;;;;;;;16.73;6.80;;;3.80;99.90;;;;;;5049636;28;20044;-72
2022/04/28 00:04:45;;;;;;;13.82;6.95;;;3.70;99.90;;;;;;5047953;28;20080;-71
2022/04/28 00:07:10;;;;;;;14.10;6.93;;;3.70;99.90;;;;;;5050022;28;20080;-71
2022/04/28 00:09:36;;;;;;;16.45;6.75;;;3.70;99.90;;;;;;5057800;28;20060;-71
2022/04/28 00:12:01;;;;;;;15.35;7.47;;;3.60;99.90;;;;;;5051278;28;20033;-71
2022/04/28 00:14:27;;;;;;;14.80;6.93;;;3.60;99.90;;;;;;5051915;28;20045;-71
2022/04/28 00:16:52;;;;;;;15.30;6.72;;;3.60;99.90;;;;;;5057036;28;20040;-71
2022/04/28 00:19:18;;;;;;;17.85;7.30;;;3.60;99.90;;;;;;5062334;28;20129;-72
2022/04/28 00:21:43;;;;;;;17.15;7.50;;;3.60;99.90;;;;;;5053338;28;20044;-71
2022/04/28 00:24:09;;;;;;;16.15;6.70;;;3.60;99.90;;;;;;5063330;28;20402;-71
2022/04/28 00:26:34;;;;;;;12.00;5.72;;;3.50;99.90;;;;;;5051949;28;20028;-71
2022/04/28 00:29:00;;;;;;;14.63;6.38;;;3.50;99.90;;;;;;5051301;28;20041;-71
2022/04/28 00:31:25;;;;;;;17.10;7.20;;;3.40;99.90;;;;;;5050078;28;20037;-71
2022/04/28 00:33:51;;;;;;;15.85;6.68;;;3.40;99.90;;;;;;5042595;28;20373;-71
2022/04/28 00:36:17;;;;;;;16.63;7.70;;;3.30;99.90;;;;;;5066008;28;20032;-71
2022/04/28 00:38:43;;;;;;;17.05;7.50;;;3.30;99.90;;;;;;5072753;28;20063;-71
2022/04/28 00:41:08;;;;;;;14.98;7.50;;;3.20;99.90;;;;;;5082966;28;20123;-71
2022/04/28 00:43:50;;;;;;;17.20;7.57;;;3.20;99.90;;;;;;5047868;28;21519;-71
2022/04/28 00:46:16;;;;;;;12.48;6.78;;;3.20;99.90;;;;;;5049173;28;20534;-71
2022/04/28 00:51:28;;;;;;;12.43;6.90;;;3.20;99.90;;;;;;5081605;28;20039;-71
2022/04/28 00:53:55;;;;;;;12.77;7.10;;;3.10;99.90;;;;;;5054676;28;20144;-71
2022/04/28 00:56:20;;;;;;;12.57;7.00;;;3.00;99.90;;;;;;5049736;28;20048;-71
2022/04/28 00:58:48;;;;;;;13.55;5.47;;;2.90;99.90;;;;;;5048959;28;20044;-71
2022/04/28 01:01:13;;;;;;;17.95;7.40;;;2.90;99.90;;;;;;5079726;28;20099;-71
2022/04/28 01:03:39;;;;;;;17.23;7.85;;;2.80;99.90;;;;;;5049449;28;20438;-71
2022/04/28 01:06:04;;;;;;;16.08;7.57;;;2.70;99.90;;;;;;5049250;28;20060;-71
2022/04/28 01:08:30;;;;;;;18.08;7.57;;;2.70;99.90;;;;;;5051185;28;20087;-71
2022/04/28 01:10:57;;;;;;;13.32;7.10;;;2.80;99.90;;;;;;5057484;28;20187;-71
2022/04/28 01:13:22;;;;;;;17.38;8.23;;;2.70;99.90;;;;;;5058821;28;20044;-71
2022/04/28 01:15:50;;;;;;;14.95;7.35;;;2.70;99.90;;;;;;5050506;28;21303;-71
2022/04/28 01:18:17;;;;;;;20.30;7.55;;;2.70;99.90;;;;;;5057922;28;20051;-71
2022/04/28 01:20:43;;;;;;;15.23;6.88;;;2.70;99.90;;;;;;5046215;28;20048;-71
2022/04/28 01:23:10;;;;;;;15.40;7.30;;;2.60;99.90;;;;;;5054919;28;20048;-71
2022/04/28 01:25:35;;;;;;;17.30;7.55;;;2.50;99.90;;;;;;5048780;28;20079;-71
2022/04/28 01:28:01;;;;;;;15.98;8.10;;;2.50;99.90;;;;;;5055689;28;20076;-71
2022/04/28 01:30:27;;;;;;;17.55;8.00;;;2.50;99.90;;;;;;5046881;28;20048;-71
2022/04/28 01:32:56;;;;;;;17.50;8.43;;;2.50;99.90;;;;;;5062272;28;20052;-71
2022/04/28 01:35:21;;;;;;;16.38;7.30;;;2.40;99.90;;;;;;5062042;28;20403;-71
2022/04/28 01:37:47;;;;;;;17.55;7.70;;;2.50;99.90;;;;;;5055367;28;20036;-71
2022/04/28 01:40:12;;;;;;;17.90;8.60;;;2.50;99.90;;;;;;5066136;28;20119;-71
2022/04/28 01:42:39;;;;;;;15.98;7.22;;;2.40;99.90;;;;;;5050737;28;20170;-71
2022/04/28 01:45:07;;;;;;;14.05;6.97;;;2.40;99.90;;;;;;5051825;28;20115;-71
2022/04/28 01:47:33;;;;;;;16.27;7.35;;;2.40;99.90;;;;;;5051186;28;20441;-71
2022/04/28 01:49:59;;;;;;;13.85;7.13;;;2.40;99.90;;;;;;5055738;28;20072;-71
2022/04/28 01:55:08;;;;;;;8.15;4.93;;;2.50;99.90;;;;;;5048387;28;20056;-71
2022/04/28 01:57:34;;;;;;;9.55;5.65;;;2.50;99.90;;;;;;5049333;28;20468;-71
2022/04/28 02:00:00;;;;;;;13.10;6.60;;;2.60;99.90;;;;;;5047368;28;20040;-71
2022/04/28 02:02:26;;;;;;;16.10;7.75;;;2.60;99.90;;;;;;5049071;28;20053;-71
2022/04/28 02:04:52;;;;;;;21.15;8.48;;;2.70;99.90;;;;;;5051626;28;20092;-71
2022/04/28 02:07:18;;;;;;;16.10;7.85;;;2.80;99.90;;;;;;5052596;28;20041;-71
2022/04/28 02:09:45;;;;;;;15.40;7.22;;;2.90;99.90;;;;;;5051737;28;20120;-71
2022/04/28 02:12:13;;;;;;;16.48;7.15;;;2.90;99.90;;;;;;5063947;28;20040;-71
2022/04/28 02:14:39;;;;;;;14.55;7.70;;;3.00;99.90;;;;;;5057684;28;20086;-71
2022/04/28 02:17:04;;;;;;;18.67;8.98;;;3.00;99.90;;;;;;5065598;28;20562;-71
2022/04/28 02:19:31;;;;;;;16.75;8.30;;;3.10;99.90;;;;;;5063787;28;20136;-72
2022/04/28 02:21:56;;;;;;;17.77;8.43;;;3.10;99.90;;;;;;5055476;28;20083;-71
2022/04/28 02:24:22;;;;;;;21.25;8.38;;;3.20;99.90;;;;;;5084209;28;20064;-72
2022/04/28 02:26:48;;;;;;;17.50;8.02;;;3.20;99.90;;;;;;5047658;28;20033;-71
2022/04/28 02:29:14;;;;;;;14.50;8.05;;;3.30;99.90;;;;;;5051986;28;20381;-71
2022/04/28 02:31:39;;;;;;;19.00;7.97;;;3.30;99.90;;;;;;5050656;28;20033;-72
2022/04/28 02:34:05;;;;;;;17.23;8.68;;;3.30;99.90;;;;;;5055213;28;20098;-72
2022/04/28 02:36:30;;;;;;;16.50;7.90;;;3.30;99.90;;;;;;5061553;28;20040;-72
2022/04/28 02:38:56;;;;;;;19.42;8.68;;;3.30;99.90;;;;;;5055460;28;20101;-72
2022/04/28 02:41:21;;;;;;;21.13;9.20;;;3.40;99.90;;;;;;5070174;28;20046;-71
2022/04/28 02:43:51;;;;;;;20.65;9.48;;;3.40;99.90;;;;;;5063156;28;20075;-71
2022/04/28 02:46:18;;;;;;;18.50;8.57;;;3.50;99.90;;;;;;5051575;28;20033;-71
2022/04/28 02:48:44;;;;;;;14.63;7.63;;;3.50;99.90;;;;;;5051650;28;20033;-71
2022/04/28 02:51:10;;;;;;;17.60;7.88;;;3.60;99.90;;;;;;5066237;28;20090;-71
2022/04/28 02:53:37;;;;;;;18.38;8.05;;;3.60;99.90;;;;;;5064913;28;20037;-72
2022/04/28 02:56:03;;;;;;;20.65;9.85;;;3.60;99.90;;;;;;5050568;28;20403;-72
2022/04/28 02:58:29;;;;;;;24.50;9.25;;;3.60;99.90;;;;;;5084873;28;20048;-72
2022/04/28 03:00:54;;;;;;;23.77;9.73;;;3.60;99.90;;;;;;5066642;28;20056;-72
2022/04/28 03:03:20;;;;;;;17.45;8.93;;;3.50;99.90;;;;;;5056110;28;20064;-71
2022/04/28 03:11:17;;;;;;;16.58;9.00;;;3.70;99.90;;;;;;5051208;28;20079;-72
2022/04/28 03:13:43;;;;;;;19.95;9.82;;;3.80;99.90;;;;;;5051670;28;20065;-72
2022/04/28 03:16:08;;;;;;;17.98;8.93;;;3.80;99.90;;;;;;5046060;28;20037;-71
2022/04/28 03:18:34;;;;;;;19.23;8.70;;;3.90;99.90;;;;;;5058825;28;20074;-71
2022/04/28 03:21:00;;;;;;;22.52;9.82;;;3.90;99.90;;;;;;5068648;28;20140;-71
2022/04/28 03:23:26;;;;;;;13.50;7.70;;;4.00;99.90;;;;;;5057996;28;20037;-71
2022/04/28 03:25:52;;;;;;;16.73;7.70;;;4.10;99.90;;;;;;5031446;28;20037;-71
2022/04/28 03:28:22;;;;;;;16.13;8.15;;;4.00;99.90;;;;;;5085367;28;20546;-71
2022/04/28 03:30:49;;;;;;;15.02;8.38;;;3.90;99.90;;;;;;5063123;28;20032;-71
2022/04/28 03:33:15;;;;;;;20.63;9.07;;;3.90;99.90;;;;;;5059299;28;20048;-71
2022/04/28 03:35:41;;;;;;;20.75;8.82;;;3.90;99.90;;;;;;5061340;28;20043;-71
2022/04/28 03:38:13;;;;;;;18.52;9.35;;;4.00;99.90;;;;;;5062042;28;20391;-71
2022/04/28 03:40:43;;;;;;;17.25;8.50;;;4.00;99.90;;;;;;5064272;28;20097;-71
2022/04/28 03:43:09;;;;;;;19.83;9.75;;;4.00;99.90;;;;;;5061859;28;20139;-72
2022/04/28 03:45:36;;;;;;;22.63;9.98;;;4.00;99.90;;;;;;5050693;28;20037;-72
2022/04/28 03:48:03;;;;;;;19.50;9.02;;;4.10;99.90;;;;;;5048975;28;20118;-72
2022/04/28 03:50:30;;;;;;;17.25;9.07;;;4.20;99.90;;;;;;5049258;28;20048;-71
2022/04/28 03:52:57;;;;;;;16.33;8.00;;;4.30;99.90;;;;;;5050771;28;20080;-71
2022/04/28 03:55:24;;;;;;;18.55;8.68;;;4.30;99.90;;;;;;5054049;28;20484;-71
2022/04/28 03:57:49;;;;;;;21.35;9.27;;;4.40;99.90;;;;;;5082905;28;20040;-71
2022/04/28 04:00:15;;;;;;;18.70;8.68;;;4.40;99.90;;;;;;5058656;28;20502;-71
2022/04/28 04:02:41;;;;;;;16.45;8.82;;;4.50;99.90;;;;;;5064585;28;20368;-71
2022/04/28 04:05:07;;;;;;;19.75;9.57;;;4.50;99.90;;;;;;5070631;28;20534;-71
2022/04/28 04:07:33;;;;;;;18.95;9.20;;;4.50;99.90;;;;;;5049136;28;20383;-71
2022/04/28 04:09:59;;;;;;;19.80;8.35;;;4.50;99.90;;;;;;5044927;28;20053;-71
2022/04/28 04:12:26;;;;;;;21.73;9.02;;;4.50;99.90;;;;;;5030247;28;20045;-71
2022/04/28 04:14:52;;;;;;;21.17;9.57;;;4.50;99.90;;;;;;5031061;28;20048;-71
2022/04/28 04:17:19;;;;;;;19.75;9.82;;;4.50;99.90;;;;;;5050028;28;20457;-71
2022/04/28 04:19:44;;;;;;;23.20;9.45;;;4.50;99.90;;;;;;5069630;28;20059;-71
2022/04/28 04:22:10;;;;;;;19.25;9.40;;;4.50;99.90;;;;;;5061785;28;20475;-71
2022/04/28 04:24:35;;;;;;;22.42;9.32;;;4.50;99.90;;;;;;5049528;28;20094;-72
2022/04/28 04:27:02;;;;;;;23.98;9.68;;;4.60;99.90;;;;;;5049149;28;20072;-71
2022/04/28 04:29:27;;;;;;;20.92;9.15;;;4.60;99.90;;;;;;5047436;28;20431;-71
2022/04/28 04:34:37;;;;;;;19.83;9.13;;;4.80;99.90;;;;;;5048532;28;20055;-72
2022/04/28 04:37:03;;;;;;;21.83;10.10;;;4.80;99.90;;;;;;5049722;28;20044;-72
2022/04/28 04:39:28;;;;;;;20.85;9.63;;;4.80;99.90;;;;;;5041940;28;20045;-72
2022/04/28 04:41:53;;;;;;;18.98;9.68;;;4.90;99.90;;;;;;5028952;28;20144;-71
2022/04/28 04:44:19;;;;;;;18.02;9.65;;;5.00;99.90;;;;;;5034061;28;20149;-71
2022/04/28 04:46:45;;;;;;;19.75;9.07;;;5.00;99.90;;;;;;5057048;28;20040;-71
2022/04/28 04:49:10;;;;;;;24.33;10.20;;;5.00;99.90;;;;;;5045935;28;20037;-71
2022/04/28 04:51:36;;;;;;;22.48;9.55;;;5.10;99.90;;;;;;5049615;28;20036;-71
2022/04/28 04:54:01;;;;;;;21.13;9.02;;;5.10;99.90;;;;;;5047769;28;20186;-72
2022/04/28 04:56:27;;;;;;;21.75;9.13;;;5.20;99.90;;;;;;5074032;28;20087;-71
2022/04/28 04:58:52;;;;;;;24.95;9.77;;;5.30;99.90;;;;;;5043378;28;20055;-71
2022/04/28 05:01:18;;;;;;;21.83;9.63;;;5.30;99.90;;;;;;5077583;28;20323;-71
2022/04/28 05:03:43;;;;;;;20.38;8.93;;;5.40;99.90;;;;;;5044366;28;20045;-71
2022/04/28 05:06:09;;;;;;;19.83;10.02;;;5.50;99.90;;;;;;5045263;28;20545;-71
2022/04/28 05:08:38;;;;;;;21.50;9.23;;;5.50;99.90;;;;;;5044351;28;20128;-71
2022/04/28 05:11:03;;;;;;;21.27;9.30;;;5.60;99.90;;;;;;5044691;28;20044;-71
2022/04/28 05:13:29;;;;;;;21.75;9.63;;;5.70;99.90;;;;;;5042939;28;20036;-71
2022/04/28 05:15:54;;;;;;;22.70;9.90;;;5.70;99.90;;;;;;5045606;28;20087;-71
2022/04/28 05:18:20;;;;;;;21.30;10.27;;;5.80;99.90;;;;;;5044550;28;20056;-72
2022/04/28 05:20:45;;;;;;;24.45;10.30;;;5.90;99.90;;;;;;5044108;28;20052;-74
2022/04/28 05:23:12;;;;;;;22.05;10.23;;;5.90;99.90;;;;;;5042102;28;20037;-77
2022/04/28 05:25:37;;;;;;;23.98;10.25;;;5.90;99.90;;;;;;5043537;28;20086;-79
2022/04/28 05:28:03;;;;;;;24.50;10.95;;;6.00;99.90;;;;;;5057406;28;20036;-79
2022/04/28 05:30:28;;;;;;;25.30;11.45;;;6.10;99.90;;;;;;5043462;28;20515;-79
2022/04/28 05:32:54;;;;;;;20.50;10.32;;;6.20;99.90;;;;;;5044425;28;20141;-79
2022/04/28 05:35:20;;;;;;;27.55;11.68;;;6.20;99.90;;;;;;5027914;28;20546;-79
2022/04/28 05:37:46;;;;;;;23.08;9.63;;;6.30;99.90;;;;;;5037100;28;20048;-78
2022/04/28 05:40:13;;;;;;;21.45;10.23;;;6.40;99.90;;;;;;5046633;28;20067;-79
2022/04/28 05:48:08;;;;;;;22.52;10.30;;;6.60;99.90;;;;;;5050310;28;20194;-80
2022/04/28 05:50:34;;;;;;;27.85;10.73;;;6.80;99.90;;;;;;5052544;28;20371;-79
2022/04/28 05:52:59;;;;;;;22.73;10.68;;;6.90;99.90;;;;;;5048163;28;20045;-79
2022/04/28 05:55:25;;;;;;;23.23;10.30;;;6.90;99.90;;;;;;5064678;28;21525;-79
2022/04/28 05:57:51;;;;;;;19.83;10.27;;;7.00;99.90;;;;;;5048317;28;20139;-79
2022/04/28 06:00:17;;;;;;;22.25;10.15;;;7.10;99.90;;;;;;5062050;28;20463;-78
2022/04/28 06:02:42;;;;;;;23.45;9.52;;;7.10;99.90;;;;;;5048588;28;20044;-79
2022/04/28 06:05:08;;;;;;;21.95;9.52;;;7.30;99.90;;;;;;5051633;28;20036;-79
2022/04/28 06:07:34;;;;;;;23.23;9.55;;;7.30;99.90;;;;;;5052335;28;20029;-78
2022/04/28 06:09:59;;;;;;;22.80;10.07;;;7.40;99.90;;;;;;5051584;28;20037;-79
2022/04/28 06:12:28;;;;;;;20.77;9.85;;;7.50;99.90;;;;;;5062865;28;20077;-79
2022/04/28 06:14:55;;;;;;;25.90;10.32;;;7.60;99.90;;;;;;5053474;28;20048;-78
2022/04/28 06:17:21;;;;;;;23.17;10.60;;;7.60;99.90;;;;;;5048454;28;20494;-78
2022/04/28 06:19:46;;;;;;;22.88;9.23;;;7.70;99.90;;;;;;5047891;28;20502;-79
2022/04/28 06:22:13;;;;;;;20.55;9.32;;;7.80;99.90;;;;;;5057323;28;20040;-79
2022/04/28 06:24:38;;;;;;;23.42;9.70;;;7.90;99.90;;;;;;5060758;28;20086;-79
2022/04/28 06:27:04;;;;;;;22.90;9.30;;;8.00;99.90;;;;;;5034416;28;20447;-80
2022/04/28 06:29:30;;;;;;;19.92;9.13;;;8.10;99.90;;;;;;5027291;28;20086;-79
2022/04/28 06:31:56;;;;;;;20.08;9.07;;;8.10;99.90;;;;;;5075519;28;20098;-79
2022/04/28 06:34:22;;;;;;;21.67;8.70;;;8.20;99.90;;;;;;5053289;28;20032;-78
2022/04/28 06:36:47;;;;;;;20.88;9.30;;;8.30;99.90;;;;;;5066405;28;20068;-79
2022/04/28 06:39:13;;;;;;;21.65;8.95;;;8.30;99.90;;;;;;5056627;28;20518;-78
2022/04/28 06:41:39;;;;;;;18.17;8.13;;;8.30;99.90;;;;;;5048769;28;20033;-79
2022/04/28 06:44:04;;;;;;;20.95;7.72;;;8.40;99.90;;;;;;5063594;28;20064;-79
2022/04/28 06:46:30;;;;;;;21.33;8.63;;;8.40;99.90;;;;;;5046603;28;20445;-79
2022/04/28 06:48:56;;;;;;;20.10;8.55;;;8.50;99.90;;;;;;5031733;28;20528;-78
2022/04/28 06:51:21;;;;;;;27.60;8.50;;;8.60;99.90;;;;;;5051840;28;20448;-79
2022/04/28 06:53:47;;;;;;;17.02;8.15;;;8.60;99.90;;;;;;5035257;28;20091;-79
2022/04/28 06:56:13;;;;;;;18.70;8.45;;;8.70;99.90;;;;;;5069005;28;20407;-79
2022/04/28 06:58:38;;;;;;;17.95;8.43;;;8.70;99.90;;;;;;5056335;28;20065;-79
2022/04/28 07:01:04;;;;;;;22.83;7.90;;;8.80;99.90;;;;;;5051169;28;20447;-79
2022/04/28 07:03:30;;;;;;;18.92;8.25;;;8.90;99.90;;;;;;5055169;28;20041;-79
2022/04/28 07:05:55;;;;;;;19.75;7.05;;;8.90;99.90;;;;;;5061861;28;20864;-80
2022/04/28 07:08:21;;;;;;;16.67;7.05;;;8.90;99.90;;;;;;5054107;28;20078;-80
2022/04/28 07:10:46;;;;;;;18.75;7.63;;;9.00;99.90;;;;;;5039777;28;20123;-81
2022/04/28 07:13:12;;;;;;;17.50;7.07;;;9.10;99.90;;;;;;5057590;28;20136;-72
2022/04/28 07:15:38;;;;;;;16.88;7.38;;;9.10;99.90;;;;;;5064177;28;20140;-72
2022/04/28 07:18:04;;;;;;;16.55;7.47;;;9.20;99.90;;;;;;5085863;28;20096;-80
2022/04/28 07:20:31;;;;;;;17.58;7.15;;;9.20;99.90;;;;;;5063763;28;20089;-78
2022/04/28 07:22:59;;;;;;;16.92;8.02;;;9.10;99.90;;;;;;5073342;28;20045;-80
2022/04/28 07:25:25;;;;;;;15.90;7.10;;;9.10;99.90;;;;;;5085849;28;20167;-75
2022/04/28 07:27:51;;;;;;;20.88;7.80;;;9.20;99.90;;;;;;5053477;28;20051;-80
2022/04/28 07:30:18;;;;;;;22.15;7.93;;;9.20;99.90;;;;;;5049240;28;20049;-80
2022/04/28 07:32:43;;;;;;;18.85;8.00;;;9.10;99.90;;;;;;5037452;28;20042;-81
2022/04/28 07:35:09;;;;;;;21.25;7.82;;;9.20;99.90;;;;;;5076584;28;20048;-80
2022/04/28 07:37:34;;;;;;;23.63;7.72;;;9.20;99.90;;;;;;5033079;28;20084;-75
2022/04/28 07:40:00;;;;;;;21.25;8.25;;;9.30;99.90;;;;;;5060734;28;20045;-79
2022/04/28 07:42:26;;;;;;;18.30;8.63;;;9.40;99.90;;;;;;5048573;28;20438;-80
2022/04/28 07:44:51;;;;;;;20.88;8.32;;;9.50;99.90;;;;;;5050991;28;20045;-79
2022/04/28 07:47:17;;;;;;;19.95;7.50;;;9.60;99.90;;;;;;5050602;28;20044;-82
2022/04/28 07:49:42;;;;;;;21.05;7.30;;;9.70;99.90;;;;;;5032448;28;20121;-81
2022/04/28 07:52:08;;;;;;;15.88;6.63;;;9.80;99.90;;;;;;5030920;28;20037;-81
2022/04/28 07:54:34;;;;;;;18.23;7.00;;;9.90;99.90;;;;;;5033158;28;20137;-80
2022/04/28 07:56:59;;;;;;;19.77;6.90;;;10.10;99.90;;;;;;5030984;28;20064;-79
2022/04/28 07:59:25;;;;;;;13.60;7.03;;;10.20;99.90;;;;;;5029975;28;20045;-81
2022/04/28 08:01:51;;;;;;;18.98;7.22;;;10.30;99.90;;;;;;5039042;28;20041;-79
2022/04/28 08:04:16;;;;;;;19.35;7.90;;;10.50;99.90;;;;;;5046840;28;20100;-79
2022/04/28 08:06:42;;;;;;;22.83;7.40;;;10.70;99.90;;;;;;5045424;28;20069;-82
2022/04/28 08:09:07;;;;;;;18.35;7.70;;;10.90;99.90;;;;;;5047014;28;20063;-82
2022/04/28 08:11:33;;;;;;;14.63;6.15;;;11.00;99.90;;;;;;5056369;28;20036;-77
2022/04/28 08:13:59;;;;;;;13.93;7.10;;;10.90;99.90;;;;;;5054965;28;20045;-79
2022/04/28 08:16:24;;;;;;;14.32;6.97;;;10.90;99.90;;;;;;5052175;28;20036;-79
2022/04/28 08:18:50;;;;;;;15.02;6.57;;;10.80;99.90;;;;;;5059348;28;20496;-77
2022/04/28 08:21:16;;;;;;;13.13;6.50;;;10.80;99.90;;;;;;5037323;28;20043;-78
2022/04/28 08:23:41;;;;;;;16.55;7.45;;;10.80;99.90;;;;;;5049819;28;20064;-82
2022/04/28 08:26:07;;;;;;;15.00;6.97;;;10.80;99.90;;;;;;5051240;28;20029;-76
2022/04/28 08:28:33;;;;;;;18.90;6.72;;;10.80;99.90;;;;;;5049734;28;20506;-81
2022/04/28 08:30:58;;;;;;;18.02;6.80;;;10.80;99.90;;;;;;5049010;28;20036;-82
2022/04/28 08:33:24;;;;;;;15.55;6.60;;;10.80;99.90;;;;;;5049962;28;20577;-81
2022/04/28 08:35:50;;;;;;;18.88;7.43;;;10.80;99.90;;;;;;5033763;28;20415;-80
2022/04/28 08:38:15;;;;;;;18.40;6.63;;;10.90;99.90;;;;;;5047739;28;20052;-81
2022/04/28 08:40:45;;;;;;;17.88;5.68;;;10.90;99.90;;;;;;5039214;28;20041;-82
2022/04/28 08:43:13;;;;;;;14.35;6.18;;;11.00;99.90;;;;;;5064400;28;20053;-78
2022/04/28 08:46:50;;;;;;;11.30;5.45;;;10.90;99.90;;;;;;5047487;28;20471;-81
2022/04/28 08:48:31;;;;;;;14.65;5.70;;;10.90;99.90;;;;;;5051209;28;20052;-80
2022/04/28 08:50:57;;;;;;;17.17;5.22;;;10.90;99.90;;;;;;5053152;28;20122;-81
2022/04/28 08:53:23;;;;;;;12.63;4.85;;;11.00;99.90;;;;;;5049320;28;20049;-78
2022/04/28 08:55:49;;;;;;;12.43;5.28;;;11.10;99.90;;;;;;5066163;28;20276;-79
2022/04/28 08:58:15;;;;;;;15.82;5.45;;;11.10;99.90;;;;;;5047883;28;20041;-78
2022/04/28 09:00:40;;;;;;;15.32;5.40;;;11.20;99.90;;;;;;5043890;28;20041;-80
2022/04/28 09:03:06;;;;;;;13.65;5.30;;;11.30;99.90;;;;;;5030384;28;20041;-78
2022/04/28 09:05:33;;;;;;;17.10;5.70;;;11.40;99.90;;;;;;5063288;28;20412;-80
2022/04/28 09:07:58;;;;;;;12.57;5.90;;;11.50;99.90;;;;;;5069737;28;20033;-81
2022/04/28 09:10:26;;;;;;;15.77;5.18;;;11.60;99.90;;;;;;5047569;28;20436;-80
2022/04/28 09:14:09;;;;;;;13.85;5.45;;;11.60;99.90;;;;;;5049844;28;20049;-79
2022/04/28 09:15:48;;;;;;;12.73;5.70;;;11.70;99.90;;;;;;5044674;28;20459;-79
2022/04/28 09:18:15;;;;;;;11.77;5.68;;;11.80;99.90;;;;;;5046553;28;20458;-79
2022/04/28 09:20:42;;;;;;;10.77;5.07;;;11.80;99.90;;;;;;5058076;28;20124;-77
2022/04/28 09:23:09;;;;;;;12.93;5.57;;;11.90;99.90;;;;;;5082354;28;20087;-79
2022/04/28 09:25:34;;;;;;;15.95;5.55;;;12.00;99.90;;;;;;5046788;28;20041;-82
2022/04/28 09:28:02;;;;;;;12.88;5.28;;;12.10;99.90;;;;;;5048341;28;20430;-79
2022/04/28 09:30:44;;;;;;;10.98;5.28;;;12.30;99.90;;;;;;5048599;28;20037;-79
2022/04/28 09:33:14;;;;;;;14.13;5.20;;;12.50;99.90;;;;;;5066896;28;20048;-81
2022/04/28 09:35:48;;;;;;;12.77;5.25;;;12.70;99.90;;;;;;5048336;28;20059;-79
2022/04/28 09:38:14;;;;;;;12.30;5.05;;;13.00;99.90;;;;;;5065959;28;20403;-74
2022/04/28 09:43:27;;;;;;;13.05;4.82;;;13.40;99.90;;;;;;5048319;28;20099;-79
2022/04/28 09:45:55;;;;;;;12.68;5.05;;;13.50;99.90;;;;;;5048676;28;20045;-78
2022/04/28 09:48:21;;;;;;;12.38;5.45;;;13.60;99.90;;;;;;5048323;28;20037;-75
2022/04/28 09:50:49;;;;;;;18.67;6.22;;;13.70;99.90;;;;;;5049349;28;20098;-78
2022/04/28 09:53:15;;;;;;;12.07;4.78;;;13.70;99.90;;;;;;5083542;28;20053;-73
2022/04/28 09:55:43;;;;;;;12.10;5.05;;;13.90;99.90;;;;;;5030476;28;20411;-76
2022/04/28 09:58:11;;;;;;;17.02;5.13;;;13.80;99.90;;;;;;5078009;28;20166;-73
2022/04/28 10:00:36;;;;;;;13.68;4.75;;;13.60;99.90;;;;;;5071039;28;20500;-80
2022/04/28 10:03:03;;;;;;;8.88;3.97;;;13.30;99.90;;;;;;5056000;28;20128;-79
2022/04/28 10:05:29;;;;;;;10.40;4.90;;;13.20;99.90;;;;;;5049429;28;20037;-76
2022/04/28 10:07:55;;;;;;;11.23;4.40;;;13.10;99.90;;;;;;5083314;28;20361;-77
2022/04/28 10:10:21;;;;;;;13.15;4.47;;;13.10;99.90;;;;;;5048130;28;20426;-80
2022/04/28 10:12:48;;;;;;;11.30;4.03;;;13.00;99.90;;;;;;5049195;28;20044;-74
2022/04/28 10:15:15;;;;;;;7.35;4.15;;;12.90;99.90;;;;;;5044018;28;20407;-80
2022/04/28 10:17:46;;;;;;;12.75;4.60;;;12.90;99.90;;;;;;5050703;28;20083;-82
2022/04/28 10:20:31;;;;;;;8.52;4.32;;;12.80;99.90;;;;;;5050813;28;20037;-78
2022/04/28 10:23:01;;;;;;;16.55;5.10;;;12.80;99.90;;;;;;5067688;28;20037;-78
2022/04/28 10:34:13;;;;;;;11.55;4.68;;;13.00;99.90;;;;;;5053322;28;20554;-81
2022/04/28 10:36:55;;;;;;;15.35;5.50;;;13.10;99.90;;;;;;5087260;28;20041;-81
2022/04/28 10:39:45;;;;;;;10.85;4.95;;;13.40;99.90;;;;;;5051022;28;20036;-79
2022/04/28 10:42:42;;;;;;;12.32;5.05;;;13.50;99.90;;;;;;5053538;28;20041;-85
2022/04/28 10:45:25;;;;;;;9.38;5.13;;;13.80;99.90;;;;;;5052093;28;20056;-80
2022/04/28 10:48:12;;;;;;;;;;;13.80;99.90;;;;;;5054268;28;20044;-82
2022/04/28 10:50:37;;;;;;;16.10;4.63;;;13.80;99.90;;;;;;5039749;28;19916;-77
2022/04/28 10:53:06;;;;;;;13.20;5.15;;;13.90;99.90;;;;;;5056758;28;20127;-83
2022/04/28 10:55:33;;;;;;;11.65;4.68;;;13.80;99.90;;;;;;5071848;28;20412;-78
2022/04/28 10:58:18;;;;;;;11.23;5.00;;;13.80;99.90;;;;;;5054465;28;20044;-81
2022/04/28 11:00:54;;;;;;;7.90;4.30;;;13.90;99.90;;;;;;5058682;28;20045;-82
2022/04/28 11:03:46;;;;;;;9.00;4.55;;;14.00;99.90;;;;;;5055270;28;20077;-80
2022/04/28 11:06:32;;;;;;;11.32;4.55;;;14.20;99.90;;;;;;5052424;28;20041;-80
2022/04/28 11:09:00;;;;;;;11.52;3.70;;;14.40;99.90;;;;;;5050753;28;20480;-83
2022/04/28 11:11:30;;;;;;;11.32;4.13;;;14.60;99.90;;;;;;5054314;28;20559;-83
2022/04/28 11:13:59;;;;;;;13.38;4.57;;;14.60;99.90;;;;;;5083828;28;20048;-79
2022/04/28 11:16:26;;;;;;;10.13;4.30;;;14.60;99.90;;;;;;5051466;28;20041;-81
2022/04/28 11:18:53;;;;;;;10.65;4.13;;;14.60;99.90;;;;;;5073457;28;20406;-80
2022/04/28 11:21:19;;;;;;;14.02;4.40;;;14.60;99.90;;;;;;5055018;28;20044;-75
2022/04/28 11:23:47;;;;;;;14.65;4.40;;;14.70;99.90;;;;;;5052495;28;20127;-77
2022/04/28 11:26:14;;;;;;;15.02;4.25;;;14.70;99.90;;;;;;5052459;28;20059;-82
2022/04/28 11:28:41;;;;;;;13.02;4.55;;;14.50;99.90;;;;;;5053423;28;20492;-80
2022/04/28 11:31:12;;;;;;;9.88;4.43;;;14.40;99.90;;;;;;5070691;28;20037;-79
2022/04/28 11:33:43;;;;;;;10.98;4.47;;;14.30;99.90;;;;;;5042995;28;20049;-82
2022/04/28 11:36:27;;;;;;;11.73;4.00;;;14.30;99.90;;;;;;5065299;28;20049;-78
2022/04/28 11:38:59;;;;;;;13.60;4.82;;;14.40;99.90;;;;;;5035738;28;20144;-83
2022/04/28 11:41:33;;;;;;;13.65;4.45;;;14.40;99.90;;;;;;5039950;28;20133;-76
2022/04/28 11:44:00;;;;;;;14.13;5.07;;;14.30;99.90;;;;;;5035194;28;20091;-81
2022/04/28 11:46:27;;;;;;;13.88;5.22;;;14.10;99.90;;;;;;5044464;28;20033;-77
2022/04/28 11:48:53;;;;;;;13.70;4.82;;;14.30;99.90;;;;;;5035887;28;20627;-79
2022/04/28 11:51:23;;;;;;;14.05;4.75;;;14.50;99.90;;;;;;5052165;28;20479;-83
2022/04/28 11:53:49;;;;;;;12.95;4.70;;;14.50;99.90;;;;;;5066825;28;20087;-82
2022/04/28 11:56:23;;;;;;;14.13;5.28;;;14.50;99.90;;;;;;5050611;28;20049;-76
2022/04/28 11:58:51;;;;;;;10.75;4.60;;;14.60;99.90;;;;;;5068383;28;20049;-81
2022/04/28 12:01:20;;;;;;;11.07;4.15;;;14.60;99.90;;;;;;5031934;28;20456;-78
2022/04/28 12:03:50;;;;;;;8.63;4.30;;;14.60;99.90;;;;;;5077785;28;20084;-75
2022/04/28 12:06:18;;;;;;;11.48;5.03;;;14.50;99.90;;;;;;5054084;28;20095;-74
2022/04/28 12:08:57;;;;;;;15.57;4.75;;;14.40;99.90;;;;;;5054788;28;20051;-76
2022/04/28 12:14:23;;;;;;;16.40;5.25;;;14.10;99.90;;;;;;5051476;28;20052;-80
2022/04/28 12:19:56;;;;;;;9.13;5.53;;;14.40;99.90;;;;;;5052435;28;20083;-74
2022/04/28 12:22:28;;;;;;;17.95;5.50;;;14.50;99.90;;;;;;5068199;28;20138;-81
2022/04/28 12:24:53;;;;;;;15.30;6.00;;;14.50;99.90;;;;;;5068336;28;20049;-81
2022/04/28 12:27:19;;;;;;;14.80;6.15;;;14.50;99.90;;;;;;5053333;28;20487;-75
2022/04/28 12:29:53;;;;;;;17.58;6.60;;;14.30;99.90;;;;;;5051232;28;20037;-72
2022/04/28 12:32:45;;;;;;;10.75;5.68;;;14.20;99.90;;;;;;5051922;28;20036;-75
2022/04/28 12:35:33;;;;;;;12.27;6.32;;;14.30;99.90;;;;;;5052124;28;20048;-81
2022/04/28 12:38:07;;;;;;;16.08;6.85;;;14.40;99.90;;;;;;5044921;28;20067;-83
2022/04/28 12:40:42;;;;;;;16.42;7.30;;;14.50;99.90;;;;;;5039901;28;20082;-78
2022/04/28 12:43:09;;;;;;;12.40;6.30;;;14.50;99.90;;;;;;5033853;28;20037;-82
2022/04/28 12:45:41;;;;;;;15.82;7.25;;;14.70;99.90;;;;;;5031927;28;20037;-83
2022/04/28 12:48:21;;;;;;;;;;;14.90;99.90;;;;;;5038806;28;20036;-78
2022/04/28 12:50:48;;;;;;;14.25;7.28;;;14.90;99.90;;;;;;5051765;28;19908;-79
2022/04/28 12:53:32;;;;;;;14.20;7.15;;;14.70;99.90;;;;;;5053398;28;20048;-82
2022/04/28 12:56:08;;;;;;;18.00;6.78;;;14.70;99.90;;;;;;5051775;28;20119;-79
2022/04/28 12:58:39;;;;;;;15.15;7.47;;;14.70;99.90;;;;;;5053620;28;20060;-82
2022/04/28 13:01:09;;;;;;;17.25;7.20;;;14.80;99.90;;;;;;5053153;28;20033;-84
2022/04/28 13:03:34;;;;;;;16.52;7.07;;;15.00;99.90;;;;;;5076344;28;20080;-80
2022/04/28 13:06:00;;;;;;;13.10;6.85;;;15.20;99.90;;;;;;5051419;28;20463;-84
2022/04/28 13:08:25;;;;;;;12.27;6.32;;;15.20;99.90;;;;;;5048750;28;20040;-77
2022/04/28 13:10:52;;;;;;;17.23;6.60;;;15.20;99.90;;;;;;5031817;28;20140;-80
2022/04/28 13:13:18;;;;;;;17.58;7.28;;;15.10;99.90;;;;;;5030125;28;20072;-76
2022/04/28 13:15:43;;;;;;;15.40;7.00;;;14.80;99.90;;;;;;5049735;28;20052;-78
2022/04/28 13:18:09;;;;;;;16.73;6.57;;;14.70;99.90;;;;;;5032571;28;20377;-81
2022/04/28 13:20:34;;;;;;;17.08;6.50;;;14.80;99.90;;;;;;5036745;28;20554;-77
2022/04/28 13:23:00;;;;;;;17.38;7.20;;;14.90;99.90;;;;;;5032948;28;20049;-81